sensor_id;sensor_type;location;lat;lon;timestamp;pressure;altitude;pressure_sealevel;temperature;humidity
30516;BME280;17297;54.022;10.760;2023-05-25T00:01:36;102329.66;;;15.08;63.50
30516;BME280;17297;54.022;10.760;2023-05-25T00:04:02;102336.28;;;15.06;63.57
30516;BME280;17297;54.022;10.760;2023-05-25T00:06:29;102332.06;;;15.03;63.51
30516;BME280;17297;54.022;10.760;2023-05-25T00:08:55;102336.81;;;15.01;63.48
30516;BME280;17297;54.022;10.760;2023-05-25T00:11:22;102334.47;;;14.98;63.67
30516;BME280;17297;54.022;10.760;2023-05-25T00:13:48;102334.69;;;14.96;63.65
30516;BME280;17297;54.022;10.760;2023-05-25T00:16:14;102331.28;;;14.94;63.58
30516;BME280;17297;54.022;10.760;2023-05-25T00:18:39;102333.00;;;14.95;63.56
30516;BME280;17297;54.022;10.760;2023-05-25T00:21:05;102329.63;;;14.93;63.50
30516;BME280;17297;54.022;10.760;2023-05-25T00:23:32;102334.00;;;14.94;63.62
30516;BME280;17297;54.022;10.760;2023-05-25T00:25:58;102337.91;;;14.92;63.51
30516;BME280;17297;54.022;10.760;2023-05-25T00:28:23;102347.91;;;14.91;63.63
30516;BME280;17297;54.022;10.760;2023-05-25T00:30:49;102338.94;;;14.91;63.72
30516;BME280;17297;54.022;10.760;2023-05-25T00:33:15;102346.25;;;14.90;63.69
30516;BME280;17297;54.022;10.760;2023-05-25T00:35:43;102344.56;;;14.89;63.87
30516;BME280;17297;54.022;10.760;2023-05-25T00:38:15;102336.44;;;14.89;63.79
30516;BME280;17297;54.022;10.760;2023-05-25T00:40:42;102329.31;;;14.88;63.81
30516;BME280;17297;54.022;10.760;2023-05-25T00:43:08;102336.59;;;14.88;63.92
30516;BME280;17297;54.022;10.760;2023-05-25T00:45:33;102327.66;;;14.87;63.79
30516;BME280;17297;54.022;10.760;2023-05-25T00:48:00;102324.09;;;14.87;63.77
30516;BME280;17297;54.022;10.760;2023-05-25T00:50:42;102331.38;;;14.86;63.91
30516;BME280;17297;54.022;10.760;2023-05-25T00:53:09;102330.53;;;14.86;63.88
30516;BME280;17297;54.022;10.760;2023-05-25T00:55:43;102333.22;;;14.86;63.88
30516;BME280;17297;54.022;10.760;2023-05-25T00:58:12;102330.72;;;14.84;63.99
30516;BME280;17297;54.022;10.760;2023-05-25T01:00:39;102329.03;;;14.83;63.85
30516;BME280;17297;54.022;10.760;2023-05-25T01:03:11;102329.03;;;14.83;63.89
30516;BME280;17297;54.022;10.760;2023-05-25T01:05:44;102331.75;;;14.83;64.00
30516;BME280;17297;54.022;10.760;2023-05-25T01:08:13;102341.72;;;14.83;63.96
30516;BME280;17297;54.022;10.760;2023-05-25T01:10:39;102342.75;;;14.82;64.07
30516;BME280;17297;54.022;10.760;2023-05-25T01:13:08;102339.88;;;14.83;63.93
30516;BME280;17297;54.022;10.760;2023-05-25T01:15:38;102345.47;;;14.82;64.07
30516;BME280;17297;54.022;10.760;2023-05-25T01:18:04;102343.44;;;14.84;64.08
30516;BME280;17297;54.022;10.760;2023-05-25T01:20:29;102340.88;;;14.82;64.00
30516;BME280;17297;54.022;10.760;2023-05-25T01:25:33;102349.22;;;14.81;64.08
30516;BME280;17297;54.022;10.760;2023-05-25T01:28:17;102357.34;;;14.81;64.01
30516;BME280;17297;54.022;10.760;2023-05-25T01:30:47;102351.09;;;14.80;64.06
30516;BME280;17297;54.022;10.760;2023-05-25T01:33:15;102355.63;;;14.79;64.07
30516;BME280;17297;54.022;10.760;2023-05-25T01:35:41;102350.41;;;14.78;63.98
30516;BME280;17297;54.022;10.760;2023-05-25T01:38:08;102345.00;;;14.78;63.85
30516;BME280;17297;54.022;10.760;2023-05-25T01:40:33;102355.00;;;14.77;64.06
30516;BME280;17297;54.022;10.760;2023-05-25T01:43:00;102355.00;;;14.77;64.02
30516;BME280;17297;54.022;10.760;2023-05-25T01:45:26;102346.03;;;14.77;63.88
30516;BME280;17297;54.022;10.760;2023-05-25T01:50:40;102342.66;;;14.75;64.06
30516;BME280;17297;54.022;10.760;2023-05-25T01:53:09;102341.81;;;14.74;64.24
30516;BME280;17297;54.022;10.760;2023-05-25T01:55:44;102340.97;;;14.74;64.25
30516;BME280;17297;54.022;10.760;2023-05-25T01:58:13;102335.56;;;14.74;64.15
30516;BME280;17297;54.022;10.760;2023-05-25T02:00:39;102342.81;;;14.73;64.20
30516;BME280;17297;54.022;10.760;2023-05-25T02:03:06;102339.25;;;14.73;64.16
30516;BME280;17297;54.022;10.760;2023-05-25T02:05:31;102345.72;;;14.72;64.11
30516;BME280;17297;54.022;10.760;2023-05-25T02:07:57;102350.31;;;14.71;64.26
30516;BME280;17297;54.022;10.760;2023-05-25T02:10:22;102346.91;;;14.69;64.14
30516;BME280;17297;54.022;10.760;2023-05-25T02:12:48;102350.47;;;14.70;64.23
30516;BME280;17297;54.022;10.760;2023-05-25T02:15:14;102343.56;;;14.67;64.22
30516;BME280;17297;54.022;10.760;2023-05-25T02:17:40;102342.53;;;14.68;64.18
30516;BME280;17297;54.022;10.760;2023-05-25T02:20:07;102345.25;;;14.68;64.28
30516;BME280;17297;54.022;10.760;2023-05-25T02:22:33;102339.16;;;14.66;64.17
30516;BME280;17297;54.022;10.760;2023-05-25T02:24:59;102335.59;;;14.66;64.29
30516;BME280;17297;54.022;10.760;2023-05-25T02:27:24;102343.06;;;14.64;64.15
30516;BME280;17297;54.022;10.760;2023-05-25T02:29:50;102342.22;;;14.63;64.24
30516;BME280;17297;54.022;10.760;2023-05-25T02:32:17;102344.09;;;14.63;64.26
30516;BME280;17297;54.022;10.760;2023-05-25T02:34:42;102351.38;;;14.62;64.19
30516;BME280;17297;54.022;10.760;2023-05-25T02:37:08;102352.41;;;14.61;64.22
30516;BME280;17297;54.022;10.760;2023-05-25T02:39:33;102345.28;;;14.60;64.10
30516;BME280;17297;54.022;10.760;2023-05-25T02:41:59;102349.88;;;14.60;64.14
30516;BME280;17297;54.022;10.760;2023-05-25T02:44:25;102352.78;;;14.58;64.22
30516;BME280;17297;54.022;10.760;2023-05-25T02:46:51;102342.94;;;14.57;64.09
30516;BME280;17297;54.022;10.760;2023-05-25T02:49:16;102342.31;;;14.55;64.32
30516;BME280;17297;54.022;10.760;2023-05-25T02:51:41;102348.56;;;14.55;64.25
30516;BME280;17297;54.022;10.760;2023-05-25T02:54:07;102353.31;;;14.53;64.30
30516;BME280;17297;54.022;10.760;2023-05-25T02:56:32;102358.91;;;14.52;64.28
30516;BME280;17297;54.022;10.760;2023-05-25T02:59:00;102362.63;;;14.51;64.24
30516;BME280;17297;54.022;10.760;2023-05-25T03:01:29;102363.63;;;14.50;64.42
30516;BME280;17297;54.022;10.760;2023-05-25T03:03:55;102368.19;;;14.49;64.30
30516;BME280;17297;54.022;10.760;2023-05-25T03:06:23;102370.91;;;14.49;64.30
30516;BME280;17297;54.022;10.760;2023-05-25T03:08:54;102364.66;;;14.49;64.42
30516;BME280;17297;54.022;10.760;2023-05-25T03:11:19;102371.91;;;14.48;64.42
30516;BME280;17297;54.022;10.760;2023-05-25T03:13:46;102373.78;;;14.48;64.42
30516;BME280;17297;54.022;10.760;2023-05-25T03:16:12;102381.91;;;14.48;64.41
30516;BME280;17297;54.022;10.760;2023-05-25T03:18:37;102374.81;;;14.47;64.46
30516;BME280;17297;54.022;10.760;2023-05-25T03:21:02;102377.53;;;14.47;64.51
30516;BME280;17297;54.022;10.760;2023-05-25T03:23:29;102377.53;;;14.47;64.48
30516;BME280;17297;54.022;10.760;2023-05-25T03:25:56;102379.38;;;14.46;64.44
30516;BME280;17297;54.022;10.760;2023-05-25T03:28:23;102384.63;;;14.48;64.47
30516;BME280;17297;54.022;10.760;2023-05-25T03:30:48;102385.44;;;14.48;64.47
30516;BME280;17297;54.022;10.760;2023-05-25T03:33:14;102393.75;;;14.47;64.59
30516;BME280;17297;54.022;10.760;2023-05-25T03:35:44;102395.44;;;14.48;64.36
30516;BME280;17297;54.022;10.760;2023-05-25T03:38:10;102391.91;;;14.47;64.53
30516;BME280;17297;54.022;10.760;2023-05-25T03:40:35;102393.56;;;14.48;64.64
30516;BME280;17297;54.022;10.760;2023-05-25T03:43:00;102396.28;;;14.48;64.62
30516;BME280;17297;54.022;10.760;2023-05-25T03:45:26;102406.09;;;14.49;64.69
30516;BME280;17297;54.022;10.760;2023-05-25T03:47:51;102404.25;;;14.50;64.60
30516;BME280;17297;54.022;10.760;2023-05-25T03:50:17;102405.06;;;14.50;64.63
30516;BME280;17297;54.022;10.760;2023-05-25T03:52:42;102408.66;;;14.51;64.62
30516;BME280;17297;54.022;10.760;2023-05-25T03:55:09;102408.66;;;14.51;64.95
30516;BME280;17297;54.022;10.760;2023-05-25T03:57:34;102419.50;;;14.51;64.69
30516;BME280;17297;54.022;10.760;2023-05-25T03:59:59;102408.66;;;14.51;64.74
30516;BME280;17297;54.022;10.760;2023-05-25T04:02:25;102413.91;;;14.52;64.68
30516;BME280;17297;54.022;10.760;2023-05-25T04:04:50;102406.63;;;14.53;64.94
30516;BME280;17297;54.022;10.760;2023-05-25T04:07:18;102408.97;;;14.56;64.61
30516;BME280;17297;54.022;10.760;2023-05-25T04:09:44;102412.16;;;14.60;64.82
30516;BME280;17297;54.022;10.760;2023-05-25T04:12:09;102402.84;;;14.62;64.75
30516;BME280;17297;54.022;10.760;2023-05-25T04:14:35;102406.69;;;14.68;64.80
30516;BME280;17297;54.022;10.760;2023-05-25T04:17:00;102405.97;;;14.74;64.85
30516;BME280;17297;54.022;10.760;2023-05-25T04:19:25;102412.53;;;14.79;64.76
30516;BME280;17297;54.022;10.760;2023-05-25T04:21:51;102412.00;;;14.84;64.70
30516;BME280;17297;54.022;10.760;2023-05-25T04:24:16;102411.28;;;14.90;64.70
30516;BME280;17297;54.022;10.760;2023-05-25T04:26:42;102407.00;;;14.96;64.72
30516;BME280;17297;54.022;10.760;2023-05-25T04:29:08;102413.38;;;15.03;64.70
30516;BME280;17297;54.022;10.760;2023-05-25T04:31:54;102424.16;;;15.11;64.69
30516;BME280;17297;54.022;10.760;2023-05-25T04:34:51;102419.31;;;15.21;64.49
30516;BME280;17297;54.022;10.760;2023-05-25T04:37:22;102418.00;;;15.32;64.35
30516;BME280;17297;54.022;10.760;2023-05-25T04:39:48;102408.13;;;15.39;64.42
30516;BME280;17297;54.022;10.760;2023-05-25T04:42:13;102410.13;;;15.45;64.31
30516;BME280;17297;54.022;10.760;2023-05-25T04:44:40;102410.75;;;15.47;64.12
30516;BME280;17297;54.022;10.760;2023-05-25T04:47:06;102422.25;;;15.50;64.00
30516;BME280;17297;54.022;10.760;2023-05-25T04:49:32;102426.19;;;15.47;63.79
30516;BME280;17297;54.022;10.760;2023-05-25T04:51:58;102424.69;;;15.44;63.84
30516;BME280;17297;54.022;10.760;2023-05-25T04:54:25;102424.22;;;15.41;63.81
30516;BME280;17297;54.022;10.760;2023-05-25T04:56:51;102423.53;;;15.39;63.84
30516;BME280;17297;54.022;10.760;2023-05-25T04:59:17;102424.78;;;15.36;63.81
30516;BME280;17297;54.022;10.760;2023-05-25T05:01:43;102438.50;;;15.35;63.78
30516;BME280;17297;54.022;10.760;2023-05-25T05:04:11;102434.13;;;15.34;63.82
30516;BME280;17297;54.022;10.760;2023-05-25T05:06:38;102433.44;;;15.32;63.87
30516;BME280;17297;54.022;10.760;2023-05-25T05:09:04;102438.88;;;15.32;63.73
30516;BME280;17297;54.022;10.760;2023-05-25T05:11:31;102442.78;;;15.29;63.77
30516;BME280;17297;54.022;10.760;2023-05-25T05:13:57;102442.31;;;15.25;63.87
30516;BME280;17297;54.022;10.760;2023-05-25T05:16:23;102447.94;;;15.24;63.68
30516;BME280;17297;54.022;10.760;2023-05-25T05:18:48;102451.66;;;15.23;63.64
30516;BME280;17297;54.022;10.760;2023-05-25T05:21:14;102452.88;;;15.20;63.58
30516;BME280;17297;54.022;10.760;2023-05-25T05:23:43;102454.06;;;15.18;63.69
30516;BME280;17297;54.022;10.760;2023-05-25T05:26:10;102452.72;;;15.14;63.71
30516;BME280;17297;54.022;10.760;2023-05-25T05:28:39;102446.47;;;15.13;63.75
30516;BME280;17297;54.022;10.760;2023-05-25T05:31:06;102452.94;;;15.12;63.79
30516;BME280;17297;54.022;10.760;2023-05-25T05:33:32;102461.91;;;15.13;63.68
30516;BME280;17297;54.022;10.760;2023-05-25T05:36:00;102462.09;;;15.11;63.68
30516;BME280;17297;54.022;10.760;2023-05-25T05:38:26;102466.47;;;15.12;63.72
30516;BME280;17297;54.022;10.760;2023-05-25T05:40:52;102458.34;;;15.12;63.62
30516;BME280;17297;54.022;10.760;2023-05-25T05:43:21;102463.09;;;15.10;63.65
30516;BME280;17297;54.022;10.760;2023-05-25T05:45:46;102473.94;;;15.10;63.71
30516;BME280;17297;54.022;10.760;2023-05-25T05:48:12;102476.84;;;15.09;63.67
30516;BME280;17297;54.022;10.760;2023-05-25T05:50:38;102474.13;;;15.09;63.77
30516;BME280;17297;54.022;10.760;2023-05-25T05:53:04;102480.03;;;15.12;63.57
30516;BME280;17297;54.022;10.760;2023-05-25T05:55:30;102470.03;;;15.13;63.62
30516;BME280;17297;54.022;10.760;2023-05-25T05:57:56;102471.72;;;15.14;63.67
30516;BME280;17297;54.022;10.760;2023-05-25T06:00:21;102467.78;;;15.16;63.61
30516;BME280;17297;54.022;10.760;2023-05-25T06:02:49;102466.78;;;15.17;63.44
30516;BME280;17297;54.022;10.760;2023-05-25T06:05:20;102475.41;;;15.21;63.51
30516;BME280;17297;54.022;10.760;2023-05-25T06:07:46;102477.06;;;15.22;63.60
30516;BME280;17297;54.022;10.760;2023-05-25T06:10:12;102484.19;;;15.23;63.65
30516;BME280;17297;54.022;10.760;2023-05-25T06:12:37;102482.13;;;15.25;63.44
30516;BME280;17297;54.022;10.760;2023-05-25T06:15:04;102486.16;;;15.29;63.50
30516;BME280;17297;54.022;10.760;2023-05-25T06:17:30;102482.72;;;15.35;63.49
30516;BME280;17297;54.022;10.760;2023-05-25T06:19:56;102481.81;;;15.43;63.38
30516;BME280;17297;54.022;10.760;2023-05-25T06:22:21;102480.88;;;15.51;63.41
30516;BME280;17297;54.022;10.760;2023-05-25T06:24:50;102485.22;;;15.60;63.08
30516;BME280;17297;54.022;10.760;2023-05-25T06:27:16;102486.34;;;15.65;63.15
30516;BME280;17297;54.022;10.760;2023-05-25T06:29:41;102486.50;;;15.72;63.26
30516;BME280;17297;54.022;10.760;2023-05-25T06:32:07;102492.00;;;15.79;62.98
30516;BME280;17297;54.022;10.760;2023-05-25T06:34:35;102492.97;;;15.86;62.84
30516;BME280;17297;54.022;10.760;2023-05-25T06:37:00;102488.28;;;15.94;62.94
30516;BME280;17297;54.022;10.760;2023-05-25T06:39:26;102497.19;;;16.03;62.76
30516;BME280;17297;54.022;10.760;2023-05-25T06:41:51;102498.78;;;16.12;62.72
30516;BME280;17297;54.022;10.760;2023-05-25T06:44:27;102498.13;;;16.25;62.65
30516;BME280;17297;54.022;10.760;2023-05-25T06:46:52;102493.72;;;16.39;62.55
30516;BME280;17297;54.022;10.760;2023-05-25T06:49:17;102498.47;;;16.52;62.20
30516;BME280;17297;54.022;10.760;2023-05-25T06:51:43;102491.75;;;16.69;62.01
30516;BME280;17297;54.022;10.760;2023-05-25T06:54:09;102491.72;;;16.99;61.95
30516;BME280;17297;54.022;10.760;2023-05-25T06:56:35;102500.44;;;17.37;61.80
30516;BME280;17297;54.022;10.760;2023-05-25T06:59:01;102496.53;;;17.68;61.05
30516;BME280;17297;54.022;10.760;2023-05-25T07:01:26;102498.41;;;17.95;60.67
30516;BME280;17297;54.022;10.760;2023-05-25T07:03:52;102493.72;;;18.17;60.47
30516;BME280;17297;54.022;10.760;2023-05-25T07:06:19;102496.91;;;18.28;59.76
30516;BME280;17297;54.022;10.760;2023-05-25T07:08:45;102496.31;;;18.32;59.55
30516;BME280;17297;54.022;10.760;2023-05-25T07:11:10;102508.91;;;18.33;59.25
30516;BME280;17297;54.022;10.760;2023-05-25T07:13:38;102510.53;;;18.28;59.11
30516;BME280;17297;54.022;10.760;2023-05-25T07:16:03;102508.66;;;18.28;58.82
30516;BME280;17297;54.022;10.760;2023-05-25T07:18:29;102510.13;;;18.31;59.13
30516;BME280;17297;54.022;10.760;2023-05-25T07:20:54;102504.06;;;18.29;58.70
30516;BME280;17297;54.022;10.760;2023-05-25T07:23:19;102509.91;;;18.26;58.74
30516;BME280;17297;54.022;10.760;2023-05-25T07:25:45;102510.53;;;18.28;58.69
30516;BME280;17297;54.022;10.760;2023-05-25T07:28:11;102513.09;;;18.36;58.62
30516;BME280;17297;54.022;10.760;2023-05-25T07:30:36;102507.25;;;18.39;58.57
30516;BME280;17297;54.022;10.760;2023-05-25T07:33:01;102511.88;;;18.38;58.52
30516;BME280;17297;54.022;10.760;2023-05-25T07:35:27;102517.28;;;18.32;58.42
30516;BME280;17297;54.022;10.760;2023-05-25T07:37:57;102518.69;;;18.21;58.35
30516;BME280;17297;54.022;10.760;2023-05-25T07:40:22;102523.25;;;18.14;58.16
30516;BME280;17297;54.022;10.760;2023-05-25T07:42:47;102516.31;;;18.11;58.38
30516;BME280;17297;54.022;10.760;2023-05-25T07:45:13;102515.28;;;18.12;58.08
30516;BME280;17297;54.022;10.760;2023-05-25T07:47:39;102515.13;;;18.20;58.22
30516;BME280;17297;54.022;10.760;2023-05-25T07:50:05;102515.41;;;18.32;58.08
30516;BME280;17297;54.022;10.760;2023-05-25T07:52:30;102520.66;;;18.40;57.60
30516;BME280;17297;54.022;10.760;2023-05-25T07:54:56;102517.13;;;18.46;57.50
30516;BME280;17297;54.022;10.760;2023-05-25T07:57:21;102518.19;;;18.52;57.33
30516;BME280;17297;54.022;10.760;2023-05-25T07:59:46;102519.06;;;18.59;57.31
30516;BME280;17297;54.022;10.760;2023-05-25T08:02:12;102529.59;;;18.69;57.00
30516;BME280;17297;54.022;10.760;2023-05-25T08:04:37;102528.59;;;18.77;57.04
30516;BME280;17297;54.022;10.760;2023-05-25T08:07:03;102518.78;;;18.82;56.79
30516;BME280;17297;54.022;10.760;2023-05-25T08:09:28;102527.78;;;18.83;56.63
30516;BME280;17297;54.022;10.760;2023-05-25T08:11:53;102528.44;;;18.85;56.57
30516;BME280;17297;54.022;10.760;2023-05-25T08:14:19;102543.75;;;18.86;56.64
30516;BME280;17297;54.022;10.760;2023-05-25T08:16:45;102550.44;;;18.83;56.47
30516;BME280;17297;54.022;10.760;2023-05-25T08:19:10;102546.63;;;18.78;56.25
30516;BME280;17297;54.022;10.760;2023-05-25T08:21:35;102545.53;;;18.72;56.34
30516;BME280;17297;54.022;10.760;2023-05-25T08:24:01;102550.16;;;18.72;56.17
30516;BME280;17297;54.022;10.760;2023-05-25T08:26:30;102545.09;;;18.68;56.41
30516;BME280;17297;54.022;10.760;2023-05-25T08:28:56;102551.19;;;18.64;56.22
30516;BME280;17297;54.022;10.760;2023-05-25T08:31:21;102555.97;;;18.62;56.04
30516;BME280;17297;54.022;10.760;2023-05-25T08:33:47;102549.72;;;18.68;56.34
30516;BME280;17297;54.022;10.760;2023-05-25T08:36:12;102555.44;;;18.73;55.79
30516;BME280;17297;54.022;10.760;2023-05-25T08:38:38;102551.25;;;18.77;55.67
30516;BME280;17297;54.022;10.760;2023-05-25T08:41:05;102551.50;;;18.82;55.58
30516;BME280;17297;54.022;10.760;2023-05-25T08:43:31;102557.16;;;18.87;55.33
30516;BME280;17297;54.022;10.760;2023-05-25T08:46:04;102559.88;;;18.87;55.22
30516;BME280;17297;54.022;10.760;2023-05-25T08:48:32;102560.28;;;18.84;55.25
30516;BME280;17297;54.022;10.760;2023-05-25T08:51:01;102568.69;;;18.83;55.22
30516;BME280;17297;54.022;10.760;2023-05-25T08:53:32;102560.28;;;18.84;55.13
30516;BME280;17297;54.022;10.760;2023-05-25T08:55:59;102568.88;;;18.81;55.10
30516;BME280;17297;54.022;10.760;2023-05-25T08:58:32;102573.31;;;18.82;55.15
30516;BME280;17297;54.022;10.760;2023-05-25T09:01:03;102568.88;;;18.81;55.02
30516;BME280;17297;54.022;10.760;2023-05-25T09:03:32;102576.03;;;18.82;54.87
30516;BME280;17297;54.022;10.760;2023-05-25T09:05:58;102571.59;;;18.81;54.49
30516;BME280;17297;54.022;10.760;2023-05-25T09:08:24;102578.09;;;18.80;54.78
30516;BME280;17297;54.022;10.760;2023-05-25T09:10:51;102583.38;;;18.82;55.05
30516;BME280;17297;54.022;10.760;2023-05-25T09:13:18;102581.47;;;18.82;55.06
30516;BME280;17297;54.022;10.760;2023-05-25T09:15:44;102584.81;;;18.84;54.84
30516;BME280;17297;54.022;10.760;2023-05-25T09:18:09;102584.41;;;18.87;54.83
30516;BME280;17297;54.022;10.760;2023-05-25T09:20:35;102581.75;;;18.94;54.67
30516;BME280;17297;54.022;10.760;2023-05-25T09:23:00;102583.84;;;18.99;54.56
30516;BME280;17297;54.022;10.760;2023-05-25T09:25:27;102580.50;;;19.03;54.27
30516;BME280;17297;54.022;10.760;2023-05-25T09:27:54;102586.16;;;19.02;53.90
30516;BME280;17297;54.022;10.760;2023-05-25T09:30:22;102586.34;;;19.00;53.71
30516;BME280;17297;54.022;10.760;2023-05-25T09:32:47;102597.72;;;19.04;53.95
30516;BME280;17297;54.022;10.760;2023-05-25T09:35:13;102591.44;;;19.10;54.24
30516;BME280;17297;54.022;10.760;2023-05-25T09:37:40;102603.84;;;19.19;53.70
30516;BME280;17297;54.022;10.760;2023-05-25T09:40:07;102606.78;;;19.18;53.75
30516;BME280;17297;54.022;10.760;2023-05-25T09:42:33;102605.72;;;19.19;53.50
30516;BME280;17297;54.022;10.760;2023-05-25T09:45:00;102605.53;;;19.27;54.28
30516;BME280;17297;54.022;10.760;2023-05-25T09:47:26;102610.59;;;19.36;54.34
30516;BME280;17297;54.022;10.760;2023-05-25T09:49:52;102606.22;;;19.42;53.30
30516;BME280;17297;54.022;10.760;2023-05-25T09:52:18;102607.47;;;19.39;53.66
30516;BME280;17297;54.022;10.760;2023-05-25T09:54:45;102604.72;;;19.39;53.54
30516;BME280;17297;54.022;10.760;2023-05-25T09:57:10;102603.88;;;19.39;53.63
30516;BME280;17297;54.022;10.760;2023-05-25T09:59:35;102603.66;;;19.41;53.63
30516;BME280;17297;54.022;10.760;2023-05-25T10:02:01;102617.97;;;19.43;53.52
30516;BME280;17297;54.022;10.760;2023-05-25T10:04:26;102615.44;;;19.41;53.27
30516;BME280;17297;54.022;10.760;2023-05-25T10:06:52;102621.94;;;19.40;53.59
30516;BME280;17297;54.022;10.760;2023-05-25T10:09:19;102609.94;;;19.34;53.25
30516;BME280;17297;54.022;10.760;2023-05-25T10:11:45;102610.38;;;19.31;53.10
30516;BME280;17297;54.022;10.760;2023-05-25T10:14:14;102614.56;;;19.27;53.22
30516;BME280;17297;54.022;10.760;2023-05-25T10:16:43;102626.31;;;19.28;53.60
30516;BME280;17297;54.022;10.760;2023-05-25T10:19:16;102625.28;;;19.29;53.33
30516;BME280;17297;54.022;10.760;2023-05-25T10:22:00;102627.19;;;19.28;53.03
30516;BME280;17297;54.022;10.760;2023-05-25T10:25:03;102623.16;;;19.24;53.22
30516;BME280;17297;54.022;10.760;2023-05-25T10:27:39;102626.50;;;19.20;52.95
30516;BME280;17297;54.022;10.760;2023-05-25T10:30:05;102625.03;;;19.17;52.63
30516;BME280;17297;54.022;10.760;2023-05-25T10:32:33;102624.59;;;19.13;52.71
30516;BME280;17297;54.022;10.760;2023-05-25T10:35:02;102629.81;;;19.08;52.81
30516;BME280;17297;54.022;10.760;2023-05-25T10:37:28;102629.16;;;19.06;52.84
30516;BME280;17297;54.022;10.760;2023-05-25T10:39:56;102629.78;;;19.02;52.72
30516;BME280;17297;54.022;10.760;2023-05-25T10:42:21;102626.22;;;19.01;52.81
30516;BME280;17297;54.022;10.760;2023-05-25T10:44:48;102630.03;;;19.07;53.18
30516;BME280;17297;54.022;10.760;2023-05-25T10:47:15;102631.53;;;19.16;53.19
30516;BME280;17297;54.022;10.760;2023-05-25T10:49:51;102631.75;;;19.21;53.05
30516;BME280;17297;54.022;10.760;2023-05-25T10:52:18;102631.75;;;19.28;53.02
30516;BME280;17297;54.022;10.760;2023-05-25T10:54:47;102633.91;;;19.32;52.70
30516;BME280;17297;54.022;10.760;2023-05-25T10:57:19;102631.59;;;19.36;52.54
30516;BME280;17297;54.022;10.760;2023-05-25T10:59:49;102629.50;;;19.38;52.50
30516;BME280;17297;54.022;10.760;2023-05-25T11:02:16;102624.66;;;19.40;52.29
30516;BME280;17297;54.022;10.760;2023-05-25T11:04:42;102629.28;;;19.46;52.39
30516;BME280;17297;54.022;10.760;2023-05-25T11:07:13;102632.25;;;19.51;52.51
30516;BME280;17297;54.022;10.760;2023-05-25T11:09:41;102622.59;;;19.55;52.09
30516;BME280;17297;54.022;10.760;2023-05-25T11:12:20;102616.72;;;19.58;52.12
30516;BME280;17297;54.022;10.760;2023-05-25T11:15:21;102614.41;;;19.62;52.67
30516;BME280;17297;54.022;10.760;2023-05-25T11:17:59;102611.28;;;19.65;52.06
30516;BME280;17297;54.022;10.760;2023-05-25T11:20:27;102613.19;;;19.65;51.62
30516;BME280;17297;54.022;10.760;2023-05-25T11:22:53;102613.84;;;19.67;51.36
30516;BME280;17297;54.022;10.760;2023-05-25T11:25:47;102604.34;;;19.63;51.81
30516;BME280;17297;54.022;10.760;2023-05-25T11:28:14;102613.38;;;19.63;51.39
30516;BME280;17297;54.022;10.760;2023-05-25T11:30:40;102610.28;;;19.66;51.55
30516;BME280;17297;54.022;10.760;2023-05-25T11:33:06;102615.50;;;19.68;51.71
30516;BME280;17297;54.022;10.760;2023-05-25T11:35:33;102606.69;;;19.66;50.76
30516;BME280;17297;54.022;10.760;2023-05-25T11:38:04;102612.56;;;19.63;51.39
30516;BME280;17297;54.022;10.760;2023-05-25T11:40:30;102607.09;;;19.63;51.29
30516;BME280;17297;54.022;10.760;2023-05-25T11:42:57;102601.63;;;19.63;50.87
30516;BME280;17297;54.022;10.760;2023-05-25T11:45:27;102604.16;;;19.64;51.24
30516;BME280;17297;54.022;10.760;2023-05-25T11:47:52;102596.38;;;19.61;51.16
30516;BME280;17297;54.022;10.760;2023-05-25T11:50:18;102604.31;;;19.56;51.03
30516;BME280;17297;54.022;10.760;2023-05-25T11:52:43;102605.59;;;19.53;51.14
30516;BME280;17297;54.022;10.760;2023-05-25T11:55:12;102601.41;;;19.51;51.18
30516;BME280;17297;54.022;10.760;2023-05-25T11:57:39;102596.56;;;19.53;51.33
30516;BME280;17297;54.022;10.760;2023-05-25T12:00:05;102602.66;;;19.55;51.48
30516;BME280;17297;54.022;10.760;2023-05-25T12:02:41;102598.25;;;19.60;50.64
30516;BME280;17297;54.022;10.760;2023-05-25T12:05:07;102595.13;;;19.64;50.60
30516;BME280;17297;54.022;10.760;2023-05-25T12:07:33;102592.84;;;19.67;50.75
30516;BME280;17297;54.022;10.760;2023-05-25T12:10:13;102592.41;;;19.70;51.23
30516;BME280;17297;54.022;10.760;2023-05-25T12:12:50;102585.69;;;19.73;50.70
30516;BME280;17297;54.022;10.760;2023-05-25T12:15:20;102585.28;;;19.69;50.21
30516;BME280;17297;54.022;10.760;2023-05-25T12:17:46;102581.28;;;19.65;50.00
30516;BME280;17297;54.022;10.760;2023-05-25T12:20:13;102586.50;;;19.60;50.04
30516;BME280;17297;54.022;10.760;2023-05-25T12:22:40;102578.50;;;19.58;50.36
30516;BME280;17297;54.022;10.760;2023-05-25T12:25:07;102582.28;;;19.57;50.61
30516;BME280;17297;54.022;10.760;2023-05-25T12:27:32;102584.81;;;19.59;50.07
30516;BME280;17297;54.022;10.760;2023-05-25T12:29:58;102575.78;;;19.58;49.70
30516;BME280;17297;54.022;10.760;2023-05-25T12:32:24;102564.66;;;19.53;49.79
30516;BME280;17297;54.022;10.760;2023-05-25T12:34:49;102576.19;;;19.49;50.03
30516;BME280;17297;54.022;10.760;2023-05-25T12:37:20;102571.78;;;19.48;50.33
30516;BME280;17297;54.022;10.760;2023-05-25T12:39:46;102570.31;;;19.52;50.12
30516;BME280;17297;54.022;10.760;2023-05-25T12:42:13;102564.84;;;19.52;49.76
30516;BME280;17297;54.022;10.760;2023-05-25T12:44:40;102561.06;;;19.53;50.28
30516;BME280;17297;54.022;10.760;2023-05-25T12:49:35;102561.94;;;19.60;50.18